createdAt,value
2022-11-05T00:05:48.068Z,9.06
2022-11-05T00:20:44.351Z,8.99
2022-11-05T00:35:39.904Z,9
2022-11-05T00:50:36.213Z,8.89
2022-11-05T01:05:32.359Z,8.89
2022-11-05T01:20:28.047Z,8.76
2022-11-05T01:35:24.539Z,8.68
2022-11-05T01:50:20.866Z,8.53
2022-11-05T02:05:17.541Z,8.56
2022-11-05T02:20:13.345Z,8.46
2022-11-05T02:35:09.925Z,8.25
2022-11-05T02:50:05.838Z,8.17
2022-11-05T03:05:01.724Z,8.07
2022-11-05T03:19:58.146Z,7.94
2022-11-05T03:34:54.116Z,7.93
2022-11-05T03:49:50.376Z,7.57
2022-11-05T04:04:46.489Z,7.64
2022-11-05T04:19:42.395Z,7.73
2022-11-05T04:34:38.762Z,7.75
2022-11-05T04:49:35.011Z,7.64
2022-11-05T05:04:31.160Z,7.6
2022-11-05T05:19:26.900Z,7.36
2022-11-05T05:34:22.996Z,6.94
2022-11-05T05:49:19.015Z,6.68
2022-11-05T06:04:15.308Z,6.45
2022-11-05T06:19:11.622Z,6.09
2022-11-05T06:34:07.861Z,6.02
2022-11-05T06:49:03.656Z,6.05
2022-11-05T07:04:00.002Z,6.45
2022-11-05T07:18:56.250Z,6.71
2022-11-05T07:33:52.877Z,7.11
2022-11-05T07:48:49.361Z,7.21
2022-11-05T08:03:46.010Z,7.17
2022-11-05T08:18:42.203Z,7.57
2022-11-05T08:33:38.820Z,7.72
2022-11-05T08:48:34.845Z,7.78
2022-11-05T09:03:31.158Z,8.15
2022-11-05T09:18:27.261Z,8.24
2022-11-05T09:33:23.693Z,8.58
2022-11-05T09:48:20.219Z,8.91
2022-11-05T10:03:16.791Z,9.34
2022-11-05T10:18:13.337Z,9.6
2022-11-05T10:33:10.029Z,10.64
2022-11-05T10:48:06.627Z,11.31
2022-11-05T11:03:02.958Z,11.23
2022-11-05T11:17:59.577Z,11.01
2022-11-05T11:32:56.420Z,11.08
2022-11-05T11:47:52.861Z,11
2022-11-05T12:02:48.817Z,11.33
2022-11-05T12:17:45.378Z,11.45
2022-11-05T12:32:42.077Z,11.83
2022-11-05T12:47:38.033Z,11.26
2022-11-05T13:02:33.850Z,11.35
2022-11-05T13:17:29.934Z,11.41
2022-11-05T13:32:26.150Z,11.44
2022-11-05T13:47:22.444Z,11.38
2022-11-05T14:02:19.246Z,11.45
2022-11-05T14:17:14.931Z,11.01
2022-11-05T14:32:11.202Z,10.98
2022-11-05T14:47:07.236Z,10.73
2022-11-05T15:02:03.272Z,10.55
2022-11-05T15:16:59.043Z,10.29
2022-11-05T15:31:55.144Z,10.13
2022-11-05T15:46:51.115Z,9.83
2022-11-05T16:01:47.466Z,9.6
2022-11-05T16:16:43.563Z,9.58
2022-11-05T16:31:39.801Z,9.42
2022-11-05T16:46:35.715Z,9.18
2022-11-05T17:01:32.257Z,9.07
2022-11-05T17:16:28.105Z,9.17
2022-11-05T17:31:24.776Z,8.97
2022-11-05T17:46:20.822Z,8.98
2022-11-05T18:01:16.599Z,8.61
2022-11-05T18:16:12.900Z,8.75
2022-11-05T18:31:10.046Z,9.05
2022-11-05T18:46:05.072Z,8.74
2022-11-05T19:01:06.390Z,8.89
2022-11-05T19:15:57.767Z,8.88
2022-11-05T19:30:54.209Z,9.05
2022-11-05T19:45:50.851Z,8.86
2022-11-05T20:00:47.101Z,8.97
2022-11-05T20:15:43.952Z,8.7
2022-11-05T20:30:40.077Z,8.52
2022-11-05T20:45:36.369Z,8.62
2022-11-05T21:00:33.014Z,8.49
2022-11-05T21:15:29.335Z,8.32
2022-11-05T21:30:25.420Z,8.26
2022-11-05T21:45:21.992Z,8.35
2022-11-05T22:00:18.013Z,8.31
2022-11-05T22:15:14.158Z,8.37
2022-11-05T22:30:10.563Z,8.37
2022-11-05T22:45:05.973Z,8.29
2022-11-05T23:00:02.348Z,8.23
2022-11-05T23:14:58.605Z,8.09
2022-11-05T23:29:54.992Z,8.09
2022-11-05T23:44:51.454Z,8.01
2022-11-05T23:59:48.440Z,8.02
